createdAt,value
2022-10-05T00:02:25.517Z,10.92
2022-10-05T00:04:56.918Z,10.91
2022-10-05T00:07:26.066Z,10.89
2022-10-05T00:09:56.875Z,10.88
2022-10-05T00:12:29.715Z,10.86
2022-10-05T00:15:02.212Z,10.84
2022-10-05T00:17:32.023Z,10.83
2022-10-05T00:20:00.238Z,10.82
2022-10-05T00:22:33.420Z,10.80
2022-10-05T00:25:04.049Z,10.78
2022-10-05T00:27:37.979Z,10.77
2022-10-05T00:30:15.609Z,10.76
2022-10-05T00:32:44.464Z,10.75
2022-10-05T00:35:14.808Z,10.74
2022-10-05T00:37:43.419Z,10.73
2022-10-05T00:40:24.807Z,10.70
2022-10-05T00:43:13.994Z,10.68
2022-10-05T00:45:47.246Z,10.67
2022-10-05T00:48:26.482Z,10.67
2022-10-05T00:51:14.457Z,10.65
2022-10-05T00:53:49.219Z,10.66
2022-10-05T00:56:36.592Z,10.65
2022-10-05T00:59:21.817Z,10.64
2022-10-05T01:01:59.056Z,10.60
2022-10-05T01:04:38.603Z,10.62
2022-10-05T01:07:19.083Z,10.62
2022-10-05T01:09:56.729Z,10.59
2022-10-05T01:12:37.050Z,10.57
2022-10-05T01:15:12.295Z,10.56
2022-10-05T01:17:46.200Z,10.55
2022-10-05T01:20:36.043Z,10.52
2022-10-05T01:24:25.718Z,10.47
2022-10-05T01:27:35.473Z,10.42
2022-10-05T01:30:09.826Z,10.41
2022-10-05T01:32:47.211Z,10.39
2022-10-05T01:35:29.994Z,10.39
2022-10-05T01:38:13.643Z,10.38
2022-10-05T01:40:52.962Z,10.36
2022-10-05T01:43:31.912Z,10.36
2022-10-05T01:46:08.992Z,10.36
2022-10-05T01:48:49.675Z,10.35
2022-10-05T01:51:28.261Z,10.35
2022-10-05T01:54:06.608Z,10.34
2022-10-05T01:56:44.738Z,10.32
2022-10-05T01:59:26.663Z,10.32
2022-10-05T02:02:03.327Z,10.30
2022-10-05T02:05:01.089Z,10.30
2022-10-05T02:07:30.962Z,10.26
2022-10-05T02:10:04.730Z,10.26
2022-10-05T02:12:38.870Z,10.24
2022-10-05T02:15:15.767Z,10.24
2022-10-05T02:17:48.500Z,10.24
2022-10-05T02:20:22.093Z,10.25
2022-10-05T02:22:54.618Z,10.24
2022-10-05T02:25:29.020Z,10.23
2022-10-05T02:28:02.426Z,10.21
2022-10-05T02:30:36.411Z,10.23
2022-10-05T02:33:09.706Z,10.20
2022-10-05T02:35:38.343Z,10.20
2022-10-05T02:38:15.835Z,10.19
2022-10-05T02:40:55.964Z,10.16
2022-10-05T02:43:40.541Z,10.15
2022-10-05T02:46:23.137Z,10.16
2022-10-05T02:49:06.742Z,10.13
2022-10-05T02:51:46.461Z,10.12
2022-10-05T02:54:30.621Z,10.12
2022-10-05T02:57:05.083Z,10.09
2022-10-05T02:59:39.895Z,10.09
2022-10-05T03:02:18.617Z,10.08
2022-10-05T03:04:59.598Z,10.08
2022-10-05T03:07:34.642Z,10.07
2022-10-05T03:10:10.029Z,10.05
2022-10-05T03:12:50.948Z,10.04
2022-10-05T03:16:05.740Z,10.03
2022-10-05T03:18:48.410Z,9.98
2022-10-05T03:21:35.122Z,9.97
2022-10-05T03:24:22.800Z,9.93
2022-10-05T03:26:59.218Z,9.92
2022-10-05T03:29:38.287Z,9.92
2022-10-05T03:32:19.798Z,9.90
2022-10-05T03:34:56.734Z,9.90
2022-10-05T03:37:34.924Z,9.89
2022-10-05T03:40:11.238Z,9.90
2022-10-05T03:42:54.413Z,9.88
2022-10-05T03:45:29.763Z,9.87
2022-10-05T03:48:05.842Z,9.86
2022-10-05T03:50:46.988Z,9.86
2022-10-05T03:53:20.740Z,9.86
2022-10-05T03:55:55.583Z,9.85
2022-10-05T03:58:30.675Z,9.85
2022-10-05T04:01:03.078Z,9.84
2022-10-05T04:03:35.818Z,9.83
2022-10-05T04:06:12.513Z,9.81
2022-10-05T04:08:48.087Z,9.82
2022-10-05T04:11:22.586Z,9.80
2022-10-05T04:13:56.380Z,9.78
2022-10-05T04:16:28.820Z,9.76
2022-10-05T04:19:03.312Z,9.74
2022-10-05T04:21:39.219Z,9.73
2022-10-05T04:24:15.912Z,9.70
2022-10-05T04:26:50.782Z,9.71
2022-10-05T04:29:31.950Z,9.71
2022-10-05T04:32:23.215Z,9.70
2022-10-05T04:35:05.485Z,9.68
2022-10-05T04:37:48.082Z,9.65
2022-10-05T04:40:35.424Z,9.64
2022-10-05T04:43:10.961Z,9.62
2022-10-05T04:45:59.552Z,9.61
2022-10-05T04:48:49.432Z,9.60
2022-10-05T04:51:34.791Z,9.59
2022-10-05T04:54:16.970Z,9.59
2022-10-05T04:56:50.821Z,9.59
2022-10-05T04:59:46.130Z,9.58
2022-10-05T05:02:25.563Z,9.56
2022-10-05T05:05:22.438Z,9.55
2022-10-05T05:08:02.179Z,9.53
2022-10-05T05:10:58.483Z,9.52
2022-10-05T05:13:51.717Z,9.50
2022-10-05T05:16:30.250Z,9.51
2022-10-05T05:19:16.655Z,9.49
2022-10-05T05:21:55.501Z,9.50
2022-10-05T05:24:37.330Z,9.51
2022-10-05T05:27:33.219Z,9.50
2022-10-05T05:30:07.792Z,9.48
2022-10-05T05:32:45.932Z,9.47
2022-10-05T05:36:13.243Z,9.46
2022-10-05T05:38:48.660Z,9.44
2022-10-05T05:41:28.333Z,9.43
2022-10-05T05:44:09.636Z,9.44
2022-10-05T05:47:02.297Z,9.43
2022-10-05T05:49:43.035Z,9.43
2022-10-05T05:52:19.459Z,9.43
2022-10-05T05:54:56.104Z,9.43
2022-10-05T05:57:30.584Z,9.45
2022-10-05T06:00:07.467Z,9.45
2022-10-05T06:02:45.685Z,9.47
2022-10-05T06:05:30.114Z,9.49
2022-10-05T06:08:02.804Z,9.51
2022-10-05T06:10:41.400Z,9.53
2022-10-05T06:13:19.247Z,9.54
2022-10-05T06:15:54.455Z,9.60
2022-10-05T06:18:24.804Z,9.61
2022-10-05T06:20:59.170Z,9.66
2022-10-05T06:23:36.720Z,9.69
2022-10-05T06:26:19.199Z,9.74
2022-10-05T06:28:53.702Z,9.79
2022-10-05T06:31:43.134Z,9.84
2022-10-05T06:34:28.449Z,9.89
2022-10-05T06:37:02.897Z,9.95
2022-10-05T06:39:55.448Z,10.02
2022-10-05T06:43:29.874Z,10.12
2022-10-05T06:46:08.676Z,10.20
2022-10-05T06:49:02.800Z,10.33
2022-10-05T06:51:39.913Z,10.44
2022-10-05T06:54:24.217Z,10.58
2022-10-05T06:57:00.971Z,10.71
2022-10-05T06:59:37.487Z,10.85
2022-10-05T07:02:18.918Z,11.01
2022-10-05T07:05:06.167Z,11.17
2022-10-05T07:07:44.005Z,11.36
2022-10-05T07:10:26.103Z,11.56
2022-10-05T07:13:20.900Z,11.77
2022-10-05T07:16:00.216Z,11.96
2022-10-05T07:19:03.150Z,12.18
2022-10-05T07:21:42.045Z,12.39
2022-10-05T07:24:27.317Z,12.62
2022-10-05T07:27:05.486Z,12.83
2022-10-05T07:29:40.823Z,13.07
2022-10-05T07:32:25.497Z,13.28
2022-10-05T07:35:05.151Z,13.48
2022-10-05T07:37:55.380Z,13.68
2022-10-05T07:40:29.878Z,13.88
2022-10-05T07:43:08.835Z,14.03
2022-10-05T07:45:46.854Z,14.18
2022-10-05T07:48:21.635Z,14.29
2022-10-05T07:51:01.239Z,14.41
2022-10-05T07:53:38.516Z,14.53
2022-10-05T07:56:16.021Z,14.64
2022-10-05T07:58:48.317Z,14.76
2022-10-05T08:01:24.606Z,14.88
2022-10-05T08:03:57.506Z,14.98
2022-10-05T08:06:45.056Z,15.10
2022-10-05T08:09:31.415Z,15.23
2022-10-05T08:12:23.977Z,15.37
2022-10-05T08:14:58.033Z,15.49
2022-10-05T08:17:39.310Z,15.60
2022-10-05T08:20:35.028Z,15.78
2022-10-05T08:23:17.433Z,15.94
2022-10-05T08:26:08.019Z,16.10
2022-10-05T08:28:40.393Z,16.28
2022-10-05T08:31:18.120Z,16.44
2022-10-05T08:33:58.651Z,16.61
2022-10-05T08:36:49.235Z,16.79
2022-10-05T08:39:23.025Z,17.00
2022-10-05T08:42:40.072Z,17.21
2022-10-05T08:45:51.592Z,17.43
2022-10-05T08:48:37.556Z,17.61
2022-10-05T08:51:55.260Z,17.82
2022-10-05T08:54:41.319Z,18.01
2022-10-05T08:57:47.509Z,18.17
2022-10-05T09:00:20.127Z,18.33
2022-10-05T09:03:34.656Z,18.50
2022-10-05T09:06:25.369Z,18.69
2022-10-05T09:09:24.532Z,18.86
2022-10-05T09:12:23.177Z,19.05
2022-10-05T09:15:24.833Z,19.26
2022-10-05T09:18:44.441Z,19.54
2022-10-05T09:21:26.372Z,19.73
2022-10-05T09:24:24.060Z,19.95
2022-10-05T09:27:05.010Z,20.15
2022-10-05T09:30:15.257Z,20.39
2022-10-05T09:33:32.765Z,20.54
2022-10-05T09:36:35.390Z,20.69
2022-10-05T09:39:54.962Z,20.87
2022-10-05T09:43:11.489Z,21.07
2022-10-05T09:46:23.860Z,21.27
2022-10-05T09:49:21.210Z,21.46
2022-10-05T09:52:50.982Z,21.66
2022-10-05T09:55:50.141Z,21.84
2022-10-05T09:58:48.527Z,22.02
2022-10-05T10:01:47.077Z,22.20
2022-10-05T10:05:05.645Z,22.36
2022-10-05T10:08:05.708Z,22.55
2022-10-05T10:11:03.404Z,22.75
2022-10-05T10:14:04.006Z,22.95
2022-10-05T10:16:53.669Z,23.13
2022-10-05T10:19:47.798Z,23.31
2022-10-05T10:22:55.663Z,23.51
2022-10-05T10:26:25.444Z,23.76
2022-10-05T10:29:42.880Z,23.94
2022-10-05T10:33:17.555Z,24.09
2022-10-05T10:35:55.950Z,24.24
2022-10-05T10:38:34.435Z,24.32
2022-10-05T10:42:05.683Z,24.45
2022-10-05T10:45:04.794Z,24.58
2022-10-05T10:47:47.259Z,24.67
2022-10-05T10:51:14.892Z,24.79
2022-10-05T10:54:28.692Z,24.88
2022-10-05T10:57:05.055Z,24.94
2022-10-05T11:00:15.678Z,25.00
2022-10-05T11:03:25.062Z,25.00
2022-10-05T11:06:34.549Z,25.02
2022-10-05T11:09:41.162Z,25.09
2022-10-05T11:13:05.879Z,25.12
2022-10-05T11:16:37.149Z,25.18
2022-10-05T11:20:03.110Z,25.25
2022-10-05T11:23:39.081Z,25.28
2022-10-05T11:26:43.447Z,25.29
2022-10-05T11:30:01.960Z,25.28
2022-10-05T11:33:27.336Z,25.29
2022-10-05T11:37:05.482Z,25.25
2022-10-05T11:39:44.507Z,25.22
2022-10-05T11:43:05.473Z,25.18
2022-10-05T11:45:54.937Z,25.18
2022-10-05T11:48:55.556Z,25.17
2022-10-05T11:51:40.736Z,25.15
2022-10-05T11:55:09.772Z,25.15
2022-10-05T11:57:44.192Z,25.15
2022-10-05T12:00:19.939Z,25.14
2022-10-05T12:03:45.912Z,25.10
2022-10-05T12:06:46.863Z,24.99
2022-10-05T12:09:39.781Z,24.93
2022-10-05T12:12:18.555Z,24.90
2022-10-05T12:14:59.764Z,24.90
2022-10-05T12:17:35.910Z,24.90
2022-10-05T12:20:18.047Z,24.86
2022-10-05T12:22:53.244Z,24.89
2022-10-05T12:25:28.780Z,24.85
2022-10-05T12:28:04.887Z,24.86
2022-10-05T12:30:55.757Z,24.79
2022-10-05T12:33:31.651Z,24.83
2022-10-05T12:36:06.783Z,24.83
2022-10-05T12:38:42.643Z,24.80
2022-10-05T12:41:21.353Z,24.76
2022-10-05T12:44:06.053Z,24.76
2022-10-05T12:46:44.633Z,24.77
2022-10-05T12:49:45.447Z,24.77
2022-10-05T12:52:31.965Z,24.73
2022-10-05T12:55:11.697Z,24.76
2022-10-05T12:57:51.293Z,24.83
2022-10-05T13:00:23.141Z,24.85
2022-10-05T13:02:58.295Z,24.80
2022-10-05T13:05:33.788Z,24.83
2022-10-05T13:08:18.956Z,24.83
2022-10-05T13:10:53.492Z,24.87
2022-10-05T13:13:40.695Z,24.89
2022-10-05T13:16:24.297Z,24.92
2022-10-05T13:19:07.860Z,24.96
2022-10-05T13:21:57.048Z,24.99
2022-10-05T13:24:31.689Z,25.02
2022-10-05T13:27:09.179Z,25.05
2022-10-05T13:29:42.339Z,25.10
2022-10-05T13:32:19.244Z,25.13
2022-10-05T13:34:55.386Z,25.16
2022-10-05T13:37:34.639Z,25.20
2022-10-05T13:40:18.694Z,25.21
2022-10-05T13:42:55.752Z,25.23
2022-10-05T13:45:29.859Z,25.23
2022-10-05T13:48:16.092Z,25.25
2022-10-05T13:50:49.484Z,25.27
2022-10-05T13:53:26.559Z,25.28
2022-10-05T13:56:00.812Z,25.31
2022-10-05T13:58:40.065Z,25.32
2022-10-05T14:01:16.904Z,25.32
2022-10-05T14:04:07.411Z,25.32
2022-10-05T14:06:38.864Z,25.31
2022-10-05T14:09:14.975Z,25.31
2022-10-05T14:11:52.134Z,25.29
2022-10-05T14:14:28.416Z,25.27
2022-10-05T14:16:59.109Z,25.27
2022-10-05T14:19:32.847Z,25.26
2022-10-05T14:22:03.908Z,25.24
2022-10-05T14:24:50.210Z,25.23
2022-10-05T14:27:25.308Z,25.18
2022-10-05T14:30:02.288Z,25.15
2022-10-05T14:32:34.434Z,25.13
2022-10-05T14:35:15.655Z,25.08
2022-10-05T14:37:56.349Z,25.05
2022-10-05T14:40:42.727Z,24.99
2022-10-05T14:43:21.793Z,24.95
2022-10-05T14:46:00.723Z,24.91
2022-10-05T14:48:39.421Z,24.86
2022-10-05T14:51:12.713Z,24.82
2022-10-05T14:53:44.579Z,24.76
2022-10-05T14:56:38.655Z,24.69
2022-10-05T14:59:32.523Z,24.60
2022-10-05T15:02:21.164Z,24.53
2022-10-05T15:05:01.418Z,24.44
2022-10-05T15:07:36.147Z,24.38
2022-10-05T15:10:37.481Z,24.26
2022-10-05T15:13:16.651Z,24.18
2022-10-05T15:15:52.002Z,24.10
2022-10-05T15:18:37.363Z,24.02
2022-10-05T15:21:33.610Z,23.94
2022-10-05T15:24:06.385Z,23.89
2022-10-05T15:26:47.117Z,23.83
2022-10-05T15:29:41.926Z,23.77
2022-10-05T15:32:22.801Z,23.69
2022-10-05T15:35:11.997Z,23.64
2022-10-05T15:37:44.928Z,23.58
2022-10-05T15:40:24.170Z,23.53
2022-10-05T15:42:55.609Z,23.48
2022-10-05T15:45:32.365Z,23.42
2022-10-05T15:48:04.705Z,23.36
2022-10-05T15:50:46.717Z,23.29
2022-10-05T15:53:22.631Z,23.23
2022-10-05T15:55:56.791Z,23.15
2022-10-05T15:58:46.550Z,23.07
2022-10-05T16:01:20.640Z,23.00
2022-10-05T16:03:53.809Z,22.94
2022-10-05T16:06:56.830Z,22.86
2022-10-05T16:09:45.601Z,22.75
2022-10-05T16:12:34.629Z,22.66
2022-10-05T16:15:20.223Z,22.56
2022-10-05T16:18:32.238Z,22.48
2022-10-05T16:21:12.163Z,22.40
2022-10-05T16:23:53.972Z,22.32
2022-10-05T16:26:33.675Z,22.24
2022-10-05T16:29:07.063Z,22.18
2022-10-05T16:31:47.050Z,22.09
2022-10-05T16:34:32.703Z,22.01
2022-10-05T16:37:12.291Z,21.94
2022-10-05T16:39:56.849Z,21.85
2022-10-05T16:42:46.328Z,21.75
2022-10-05T16:45:30.979Z,21.67
2022-10-05T16:48:07.572Z,21.59
2022-10-05T16:50:49.646Z,21.52
2022-10-05T16:53:24.039Z,21.45
2022-10-05T16:55:58.731Z,21.38
2022-10-05T16:58:40.600Z,21.30
2022-10-05T17:01:24.839Z,21.21
2022-10-05T17:04:13.381Z,21.12
2022-10-05T17:06:58.049Z,21.04
2022-10-05T17:09:59.413Z,20.94
2022-10-05T17:12:55.908Z,20.84
2022-10-05T17:15:55.562Z,20.75
2022-10-05T17:18:49.023Z,20.67
2022-10-05T17:21:23.848Z,20.61
2022-10-05T17:23:58.473Z,20.55
2022-10-05T17:26:56.814Z,20.45
2022-10-05T17:29:42.963Z,20.38
2022-10-05T17:32:33.473Z,20.30
2022-10-05T17:35:19.188Z,20.22
2022-10-05T17:38:14.508Z,20.16
2022-10-05T17:41:19.689Z,20.09
2022-10-05T17:44:28.381Z,20.00
2022-10-05T17:47:00.389Z,19.95
2022-10-05T17:50:09.819Z,19.86
2022-10-05T17:53:00.003Z,19.80
2022-10-05T17:55:47.915Z,19.70
2022-10-05T17:59:01.730Z,19.59
2022-10-05T18:01:33.893Z,19.55
2022-10-05T18:04:39.693Z,19.47
2022-10-05T18:07:27.710Z,19.40
2022-10-05T18:10:21.527Z,19.34
2022-10-05T18:12:52.648Z,19.29
2022-10-05T18:15:48.422Z,19.23
2022-10-05T18:18:58.874Z,19.15
2022-10-05T18:21:38.011Z,19.11
2022-10-05T18:24:56.009Z,19.02
2022-10-05T18:28:03.878Z,18.94
2022-10-05T18:30:39.906Z,18.90
2022-10-05T18:33:54.480Z,18.87
2022-10-05T18:36:55.440Z,18.80
2022-10-05T18:39:48.796Z,18.75
2022-10-05T18:42:25.289Z,18.72
2022-10-05T18:44:58.755Z,18.68
2022-10-05T18:47:37.951Z,18.61
2022-10-05T18:50:27.410Z,18.57
2022-10-05T18:53:12.847Z,18.53
2022-10-05T18:55:46.940Z,18.49
2022-10-05T18:58:23.210Z,18.44
2022-10-05T19:01:33.212Z,18.38
2022-10-05T19:04:16.376Z,18.30
2022-10-05T19:06:58.127Z,18.29
2022-10-05T19:09:49.097Z,18.24
2022-10-05T19:12:30.414Z,18.20
2022-10-05T19:15:08.581Z,18.15
2022-10-05T19:18:04.477Z,18.08
2022-10-05T19:20:39.966Z,18.06
2022-10-05T19:23:27.133Z,18.01
2022-10-05T19:26:09.019Z,17.95
2022-10-05T19:28:48.023Z,17.93
2022-10-05T19:31:31.764Z,17.89
2022-10-05T19:34:21.849Z,17.84
2022-10-05T19:37:08.060Z,17.81
2022-10-05T19:39:47.087Z,17.76
2022-10-05T19:42:50.811Z,17.73
2022-10-05T19:45:24.636Z,17.69
2022-10-05T19:48:07.436Z,17.63
2022-10-05T19:50:38.457Z,17.62
2022-10-05T19:53:14.404Z,17.56
2022-10-05T19:55:45.800Z,17.56
2022-10-05T19:58:26.030Z,17.50
2022-10-05T20:00:58.175Z,17.48
2022-10-05T20:03:29.381Z,17.45
2022-10-05T20:05:59.614Z,17.40
2022-10-05T20:08:31.951Z,17.37
2022-10-05T20:11:12.339Z,17.31
2022-10-05T20:13:44.544Z,17.27
2022-10-05T20:16:47.273Z,17.22
2022-10-05T20:19:48.503Z,17.17
2022-10-05T20:22:34.564Z,17.09
2022-10-05T20:25:06.793Z,17.06
2022-10-05T20:27:49.650Z,17.00
2022-10-05T20:30:21.916Z,16.97
2022-10-05T20:32:51.140Z,16.95
2022-10-05T20:35:22.416Z,16.92
2022-10-05T20:37:51.035Z,16.88
2022-10-05T20:40:21.288Z,16.84
2022-10-05T20:42:50.381Z,16.80
2022-10-05T20:45:20.059Z,16.74
2022-10-05T20:47:48.401Z,16.71
2022-10-05T20:50:17.102Z,16.67
2022-10-05T20:52:45.487Z,16.63
2022-10-05T20:55:13.952Z,16.59
2022-10-05T20:57:42.647Z,16.56
2022-10-05T21:00:13.040Z,16.51
2022-10-05T21:02:57.577Z,16.45
2022-10-05T21:05:26.121Z,16.40
2022-10-05T21:07:54.499Z,16.37
2022-10-05T21:10:22.803Z,16.33
2022-10-05T21:12:51.443Z,16.30
2022-10-05T21:15:23.385Z,16.26
2022-10-05T21:17:53.161Z,16.22
2022-10-05T21:20:21.513Z,16.19
2022-10-05T21:22:49.863Z,16.16
2022-10-05T21:25:18.234Z,16.12
2022-10-05T21:27:48.693Z,16.08
2022-10-05T21:30:17.297Z,16.05
2022-10-05T21:32:45.650Z,16.00
2022-10-05T21:35:15.628Z,15.97
2022-10-05T21:37:43.979Z,15.93
2022-10-05T21:40:12.639Z,15.89
2022-10-05T21:42:40.980Z,15.84
2022-10-05T21:45:11.105Z,15.78
2022-10-05T21:47:39.471Z,15.77
2022-10-05T21:50:09.516Z,15.73
2022-10-05T21:52:39.285Z,15.70
2022-10-05T21:55:09.016Z,15.66
2022-10-05T21:57:37.749Z,15.61
2022-10-05T22:00:09.334Z,15.58
2022-10-05T22:02:37.965Z,15.54
2022-10-05T22:05:07.068Z,15.50
2022-10-05T22:07:35.601Z,15.47
2022-10-05T22:10:06.363Z,15.42
2022-10-05T22:12:35.140Z,15.40
2022-10-05T22:15:04.925Z,15.33
2022-10-05T22:17:33.481Z,15.32
2022-10-05T22:20:02.309Z,15.28
2022-10-05T22:22:31.394Z,15.24
2022-10-05T22:25:00.183Z,15.21
2022-10-05T22:27:30.701Z,15.19
2022-10-05T22:29:59.551Z,15.15
2022-10-05T22:32:27.921Z,15.12
2022-10-05T22:34:56.216Z,15.07
2022-10-05T22:37:24.705Z,15.04
2022-10-05T22:39:55.176Z,15.01
2022-10-05T22:42:23.437Z,14.98
2022-10-05T22:44:53.093Z,14.94
2022-10-05T22:47:21.289Z,14.91
2022-10-05T22:49:49.524Z,14.88
2022-10-05T22:52:17.999Z,14.85
2022-10-05T22:54:46.247Z,14.81
2022-10-05T22:57:14.615Z,14.78
2022-10-05T22:59:42.892Z,14.74
2022-10-05T23:02:13.991Z,14.70
2022-10-05T23:04:42.403Z,14.68
2022-10-05T23:07:10.629Z,14.65
2022-10-05T23:09:38.873Z,14.63
2022-10-05T23:12:07.543Z,14.59
2022-10-05T23:14:35.855Z,14.56
2022-10-05T23:17:04.258Z,14.52
2022-10-05T23:19:33.996Z,14.49
2022-10-05T23:22:02.258Z,14.47
2022-10-05T23:24:30.523Z,14.44
2022-10-05T23:26:58.799Z,14.40
2022-10-05T23:29:28.670Z,14.38
2022-10-05T23:31:56.968Z,14.32
2022-10-05T23:34:25.711Z,14.33
2022-10-05T23:36:55.384Z,14.27
2022-10-05T23:39:23.824Z,14.28
2022-10-05T23:41:52.065Z,14.26
2022-10-05T23:44:20.302Z,14.23
2022-10-05T23:46:48.571Z,14.21
2022-10-05T23:49:16.799Z,14.14
2022-10-05T23:51:45.449Z,14.13
2022-10-05T23:54:15.169Z,14.10
2022-10-05T23:56:43.752Z,14.07
2022-10-05T23:59:11.982Z,14.04
